Time;durP1;ratioP1;P1;durP2;ratioP2;P2;SDS_P1;SDS_P2;PMS_P1;PMS_P2;Temp;Humidity;BMP_temperature;BMP_pressure;BME280_temperature;BME280_humidity;BME280_pressure;Samples;Min_cycle;Max_cycle;Signal;HPM_P1;HPM_P2
2022/06/21 00:00:59;;;;;;;0.65;0.30;;;;;;;22.17;69.81;98441.53;1703239;82;21132;-55
2022/06/21 00:03:27;;;;;;;0.93;0.40;;;;;;;22.14;69.87;98439.13;1705819;82;21037;-56
2022/06/21 00:05:54;;;;;;;1.00;0.30;;;;;;;22.11;69.90;98439.00;1706135;82;20946;-55
2022/06/21 00:08:26;;;;;;;1.37;0.30;;;;;;;22.09;69.99;98432.83;1711540;82;21405;-55
2022/06/21 00:10:55;;;;;;;0.70;0.30;;;;;;;22.07;70.07;98425.30;1710374;82;20902;-57
2022/06/21 00:13:24;;;;;;;2.55;0.37;;;;;;;22.05;70.12;98416.91;1705326;82;21006;-57
2022/06/21 00:15:59;;;;;;;3.02;0.57;;;;;;;22.03;70.19;98423.94;1714635;82;21445;-57
2022/06/21 00:18:26;;;;;;;4.72;0.40;;;;;;;22.01;70.27;98423.28;1703891;82;20946;-57
2022/06/21 00:20:52;;;;;;;1.87;0.40;;;;;;;22.00;70.35;98413.35;1713515;82;21130;-57
2022/06/21 00:23:26;;;;;;;2.90;0.37;;;;;;;21.99;70.40;98416.27;1707587;82;21405;-56
2022/06/21 00:25:52;;;;;;;0.40;0.30;;;;;;;21.97;70.46;98411.44;1710165;82;21415;-57
2022/06/21 00:28:19;;;;;;;2.20;0.40;;;;;;;21.94;70.51;98412.67;1704332;82;21030;-57
2022/06/21 00:30:47;;;;;;;2.90;0.45;;;;;;;21.92;70.55;98409.77;1710946;82;20982;-57
2022/06/21 00:33:16;;;;;;;1.60;0.40;;;;;;;21.90;70.63;98405.83;1713169;82;21373;-57
2022/06/21 00:35:45;;;;;;;1.57;0.30;;;;;;;21.88;70.70;98408.73;1712743;82;20910;-56
2022/06/21 00:38:18;;;;;;;2.33;0.30;;;;;;;21.86;70.75;98408.05;1683364;82;20992;-57
2022/06/21 00:40:44;;;;;;;2.25;0.40;;;;;;;21.83;70.77;98395.25;1704647;82;20872;-57
2022/06/21 00:43:21;;;;;;;0.62;0.30;;;;;;;21.80;70.81;98395.08;1710643;82;21421;-56
2022/06/21 00:45:48;;;;;;;0.60;0.30;;;;;;;21.79;70.87;98386.52;1681046;82;21148;-57
2022/06/21 00:48:34;;;;;;;2.02;0.42;;;;;;;21.76;70.92;98386.04;1710980;82;20884;-57
2022/06/21 00:51:24;;;;;;;5.08;0.42;;;;;;;21.74;70.95;98387.58;1713178;82;21342;-57
2022/06/21 00:53:56;;;;;;;3.17;0.40;;;;;;;21.71;70.98;98386.55;1705660;82;21413;-57
2022/06/21 00:56:27;;;;;;;2.17;0.50;;;;;;;21.69;71.06;98376.83;1705825;82;20887;-57
2022/06/21 00:58:54;;;;;;;1.47;0.35;;;;;;;21.67;71.08;98378.37;1710005;82;21103;-57
2022/06/21 01:01:27;;;;;;;2.65;0.37;;;;;;;21.65;71.11;98379.05;1703824;82;21062;-57
2022/06/21 01:04:01;;;;;;;0.88;0.50;;;;;;;21.63;71.12;98368.78;1703845;82;21049;-57
2022/06/21 01:06:36;;;;;;;3.25;0.50;;;;;;;21.60;71.15;98370.53;1708954;82;21049;-56
2022/06/21 01:09:20;;;;;;;0.68;0.40;;;;;;;21.58;71.02;98368.48;1714792;82;21053;-57
2022/06/21 01:12:11;;;;;;;0.85;0.33;;;;;;;21.57;71.20;98363.17;1698089;82;21579;-57
2022/06/21 01:14:41;;;;;;;1.50;0.30;;;;;;;21.55;71.28;98360.61;1708034;82;21307;-57
2022/06/21 01:17:08;;;;;;;1.30;0.30;;;;;;;21.53;71.31;98355.81;1679429;82;20978;-57
2022/06/21 01:19:43;;;;;;;1.02;0.45;;;;;;;21.50;71.36;98351.57;1707224;82;20954;-57
2022/06/21 01:22:36;;;;;;;0.65;0.40;;;;;;;21.49;71.38;98346.27;1708597;82;21345;-57
2022/06/21 01:25:42;;;;;;;0.42;0.30;;;;;;;21.47;71.44;98345.06;1705842;82;21253;-56
2022/06/21 01:28:09;;;;;;;0.50;0.33;;;;;;;21.46;71.48;98341.98;1707369;82;21625;-56
2022/06/21 01:30:37;;;;;;;1.15;0.35;;;;;;;21.44;71.49;98339.08;1707937;82;21109;-59
2022/06/21 01:33:04;;;;;;;0.50;0.40;;;;;;;21.43;71.56;98338.25;1710444;82;21486;-57
2022/06/21 01:35:46;;;;;;;0.93;0.40;;;;;;;21.41;71.60;98336.20;1710684;82;21115;-57
2022/06/21 01:38:18;;;;;;;0.82;0.30;;;;;;;21.40;71.60;98335.00;1709682;82;21164;-59
2022/06/21 01:40:48;;;;;;;1.35;0.40;;;;;;;21.37;71.65;98332.09;1707206;82;21084;-58
2022/06/21 01:43:18;;;;;;;1.17;0.40;;;;;;;21.35;71.67;98323.20;1707598;82;21042;-57
2022/06/21 01:45:48;;;;;;;2.90;0.40;;;;;;;21.35;71.69;98319.64;1712351;82;21017;-57
2022/06/21 01:48:23;;;;;;;1.20;0.40;;;;;;;21.32;71.72;98319.47;1703469;82;21060;-58
2022/06/21 01:50:52;;;;;;;1.45;0.40;;;;;;;21.30;71.71;98316.56;1707787;82;22186;-57
2022/06/21 01:53:20;;;;;;;1.45;0.40;;;;;;;21.26;71.72;98312.48;1714967;82;21563;-58
2022/06/21 01:55:53;;;;;;;0.60;0.40;;;;;;;21.25;71.74;98318.98;1704963;82;21421;-58
2022/06/21 01:58:23;;;;;;;0.72;0.30;;;;;;;21.24;71.78;98314.02;1706320;82;21732;-57
2022/06/21 02:00:59;;;;;;;2.65;0.30;;;;;;;21.22;71.82;98311.97;1682611;82;20983;-56
2022/06/21 02:03:29;;;;;;;0.72;0.40;;;;;;;21.21;71.85;98317.10;1706783;82;21083;-57
2022/06/21 02:05:59;;;;;;;1.32;0.40;;;;;;;21.17;71.83;98319.87;1709875;82;21022;-55
2022/06/21 02:08:38;;;;;;;1.70;0.37;;;;;;;21.14;71.84;98312.82;1705816;82;21129;-56
2022/06/21 02:11:08;;;;;;;3.50;0.40;;;;;;;21.11;71.81;98312.30;1707797;82;20998;-58
2022/06/21 02:13:42;;;;;;;0.57;0.30;;;;;;;21.08;71.79;98309.42;1705817;82;21096;-57
2022/06/21 02:16:17;;;;;;;0.85;0.37;;;;;;;21.06;71.82;98307.38;1704040;82;21790;-57
2022/06/21 02:18:49;;;;;;;4.10;0.37;;;;;;;21.05;71.85;98310.27;1706135;82;21085;-57
2022/06/21 02:21:30;;;;;;;1.12;0.33;;;;;;;21.03;71.90;98303.61;1714197;82;21052;-57
2022/06/21 02:23:57;;;;;;;0.90;0.30;;;;;;;21.01;71.92;98300.19;1697902;82;21057;-56
2022/06/21 02:26:24;;;;;;;2.98;0.28;;;;;;;21.00;71.97;98296.28;1709970;82;21093;-58
2022/06/21 02:28:52;;;;;;;0.50;0.30;;;;;;;20.98;72.02;98296.45;1709065;82;21465;-56
2022/06/21 02:31:19;;;;;;;0.75;0.30;;;;;;;20.97;72.07;98294.74;1712463;82;21139;-55
2022/06/21 02:33:46;;;;;;;1.95;0.30;;;;;;;20.97;72.11;98291.15;1706600;82;21034;-58
2022/06/21 02:36:19;;;;;;;1.22;0.40;;;;;;;20.96;72.18;98286.19;1706942;82;21702;-56
2022/06/21 02:38:49;;;;;;;1.92;0.30;;;;;;;20.96;72.21;98277.13;1680807;82;21499;-57
2022/06/21 02:41:31;;;;;;;1.60;0.40;;;;;;;20.94;72.30;98271.83;1707305;82;21042;-56
2022/06/21 02:44:05;;;;;;;0.30;0.30;;;;;;;20.94;72.35;98269.61;1700399;82;21544;-56
2022/06/21 02:46:35;;;;;;;1.75;0.30;;;;;;;20.92;72.44;98266.22;1706342;82;21025;-57
2022/06/21 02:49:12;;;;;;;3.08;0.30;;;;;;;20.90;72.48;98269.63;1706529;82;21049;-56
2022/06/21 02:51:47;;;;;;;5.28;0.30;;;;;;;20.90;72.56;98260.06;1709295;82;21062;-56
2022/06/21 02:54:30;;;;;;;1.35;0.30;;;;;;;20.89;72.65;98256.98;1683373;82;21430;-57
2022/06/21 02:57:02;;;;;;;1.35;0.40;;;;;;;20.87;72.71;98254.42;1704520;82;21089;-57
2022/06/21 02:59:29;;;;;;;0.72;0.40;;;;;;;20.85;72.75;98248.77;1709900;82;21041;-57
2022/06/21 03:02:04;;;;;;;0.53;0.30;;;;;;;20.84;72.84;98249.83;1706984;82;21105;-56
2022/06/21 03:04:53;;;;;;;0.62;0.40;;;;;;;20.84;72.96;98245.73;1707589;82;21514;-56
2022/06/21 03:07:41;;;;;;;1.45;0.37;;;;;;;20.83;73.02;98239.41;1710767;82;21452;-57
2022/06/21 03:10:11;;;;;;;2.15;0.45;;;;;;;20.84;73.18;98242.45;1704893;82;21511;-56
2022/06/21 03:12:38;;;;;;;0.50;0.30;;;;;;;20.83;73.27;98241.28;1703229;82;21044;-58
2022/06/21 03:15:10;;;;;;;0.70;0.40;;;;;;;20.83;73.38;98240.77;1714594;82;21408;-58
2022/06/21 03:18:01;;;;;;;2.45;0.30;;;;;;;20.85;73.55;98234.59;1707597;82;21022;-58
2022/06/21 03:20:27;;;;;;;2.27;0.40;;;;;;;20.87;73.71;98239.38;1683314;82;21837;-56
2022/06/21 03:22:54;;;;;;;0.93;0.40;;;;;;;20.89;73.90;98245.53;1703580;82;20879;-56
2022/06/21 03:25:32;;;;;;;1.57;0.40;;;;;;;20.91;74.08;98232.55;1708487;82;20922;-56
2022/06/21 03:28:01;;;;;;;0.85;0.40;;;;;;;20.94;74.22;98235.42;1703636;82;21010;-56
2022/06/21 03:30:34;;;;;;;1.12;0.50;;;;;;;20.95;74.38;98227.55;1700545;82;21425;-56
2022/06/21 03:33:02;;;;;;;1.70;0.57;;;;;;;20.96;74.54;98226.53;1683009;82;21133;-56
2022/06/21 03:35:31;;;;;;;1.85;0.40;;;;;;;20.98;74.73;98223.97;1714737;82;21808;-57
2022/06/21 03:37:58;;;;;;;0.50;0.40;;;;;;;21.00;74.89;98217.81;1709980;82;21373;-57
2022/06/21 03:43:19;;;;;;;6.58;0.40;;;;;;;21.06;75.26;98219.83;1702100;82;20914;-56
2022/06/21 03:45:46;;;;;;;0.70;0.40;;;;;;;21.09;75.48;98222.73;1707484;82;20942;-57
2022/06/21 03:48:33;;;;;;;1.10;0.42;;;;;;;21.12;75.68;98215.01;1704572;82;20949;-57
2022/06/21 03:51:05;;;;;;;0.82;0.40;;;;;;;21.14;75.86;98206.11;1710377;82;21420;-56
2022/06/21 03:53:51;;;;;;;1.75;0.40;;;;;;;21.18;76.08;98217.57;1713697;82;21673;-56
2022/06/21 03:56:29;;;;;;;2.12;0.40;;;;;;;21.22;76.32;98209.87;1706052;82;21121;-57
2022/06/21 03:59:22;;;;;;;3.20;0.40;;;;;;;21.26;76.52;98212.09;1706990;82;21448;-56
2022/06/21 04:02:00;;;;;;;2.75;0.50;;;;;;;21.31;76.78;98215.13;1709089;82;21108;-56
2022/06/21 04:04:41;;;;;;;0.68;0.50;;;;;;;21.37;77.06;98213.55;1709465;82;21263;-57
2022/06/21 04:07:32;;;;;;;1.47;0.60;;;;;;;21.40;77.29;98216.80;1705504;82;21062;-56
2022/06/21 04:10:16;;;;;;;1.10;0.50;;;;;;;21.46;77.58;98209.73;1707585;82;21788;-57
2022/06/21 04:12:53;;;;;;;4.53;0.45;;;;;;;21.50;77.84;98206.99;1706962;82;21876;-56
2022/06/21 04:15:28;;;;;;;2.55;0.98;;;;;;;21.57;78.10;98205.75;1709325;82;21065;-55
2022/06/21 04:18:23;;;;;;;5.30;0.57;;;;;;;21.63;78.39;98197.66;1707658;82;20993;-56
2022/06/21 04:21:00;;;;;;;1.57;0.50;;;;;;;21.69;78.69;98200.20;1712850;82;21086;-56
2022/06/21 04:23:45;;;;;;;2.30;0.70;;;;;;;21.75;79.02;98208.54;1705180;82;21033;-56
2022/06/21 04:26:19;;;;;;;1.40;0.50;;;;;;;21.83;79.31;98206.25;1708850;82;21775;-56
2022/06/21 04:29:02;;;;;;;2.08;0.53;;;;;;;21.90;79.64;98199.86;1699828;82;21665;-56
2022/06/21 04:31:49;;;;;;;3.08;0.60;;;;;;;21.96;79.94;98202.89;1705394;82;21374;-57
2022/06/21 04:34:21;;;;;;;1.32;0.47;;;;;;;22.04;80.26;98200.12;1706403;82;21132;-55
2022/06/21 04:36:58;;;;;;;0.98;0.70;;;;;;;22.10;80.54;98200.77;1706280;82;21101;-56
2022/06/21 04:39:36;;;;;;;0.70;0.50;;;;;;;22.14;80.81;98200.20;1707033;82;21097;-57
2022/06/21 04:42:14;;;;;;;1.45;0.47;;;;;;;22.20;81.05;98193.16;1704622;82;21052;-55
2022/06/21 04:45:14;;;;;;;0.93;0.70;;;;;;;22.26;81.33;98190.52;1704806;82;21521;-57
2022/06/21 04:47:47;;;;;;;1.98;0.60;;;;;;;22.33;81.63;98189.25;1706100;82;21045;-57
2022/06/21 04:50:39;;;;;;;2.50;0.60;;;;;;;22.40;81.93;98190.20;1703417;82;21374;-58
2022/06/21 04:53:23;;;;;;;1.22;0.45;;;;;;;22.46;82.20;98185.85;1706279;82;21153;-57
2022/06/21 04:56:14;;;;;;;2.42;0.62;;;;;;;22.53;82.52;98186.84;1709394;82;21058;-56
2022/06/21 04:58:40;;;;;;;7.30;0.60;;;;;;;22.61;82.83;98186.23;1717268;82;21502;-57
2022/06/21 05:03:53;;;;;;;0.62;0.50;;;;;;;22.77;83.48;98178.89;1675628;83;21069;-54
2022/06/21 05:06:21;;;;;;;2.85;0.60;;;;;;;22.86;83.84;98178.61;1672668;84;21620;-57
2022/06/21 05:08:48;;;;;;;1.60;0.50;;;;;;;22.94;84.10;98174.39;1684689;82;20927;-56
2022/06/21 05:11:14;;;;;;;5.37;0.60;;;;;;;23.01;84.40;98168.98;1705687;82;21099;-55
2022/06/21 05:13:44;;;;;;;3.35;0.50;;;;;;;23.10;84.71;98166.98;1708102;82;21025;-56
2022/06/21 05:16:33;;;;;;;1.67;0.50;;;;;;;23.21;85.07;98163.24;1702123;82;21351;-55
2022/06/21 05:19:19;;;;;;;1.90;0.50;;;;;;;23.31;85.48;98165.66;1709026;82;21145;-55
2022/06/21 05:22:04;;;;;;;4.28;0.70;;;;;;;23.43;85.89;98160.52;1709028;82;20988;-56
2022/06/21 05:24:31;;;;;;;3.65;0.60;;;;;;;23.54;86.33;98157.31;1709454;82;21068;-55
2022/06/21 05:27:03;;;;;;;2.37;0.55;;;;;;;23.66;86.73;98156.59;1710466;82;21156;-55
2022/06/21 05:30:04;;;;;;;2.72;0.50;;;;;;;23.75;87.10;98141.68;1709800;82;21080;-56
2022/06/21 05:32:37;;;;;;;1.15;0.50;;;;;;;23.87;87.47;98146.14;1705201;82;21270;-57
2022/06/21 05:35:15;;;;;;;2.40;0.50;;;;;;;23.98;87.89;98153.86;1702627;82;21090;-59
2022/06/21 05:38:07;;;;;;;0.70;0.50;;;;;;;24.07;88.22;98143.03;1699166;82;21654;-56
2022/06/21 05:40:43;;;;;;;3.22;0.53;;;;;;;24.15;88.46;98137.94;1712899;82;21215;-56
2022/06/21 05:43:21;;;;;;;3.12;0.70;;;;;;;24.23;88.76;98130.95;1705653;82;21450;-59
2022/06/21 05:46:03;;;;;;;1.35;0.70;;;;;;;24.31;89.04;98136.30;1701890;82;21197;-58
2022/06/21 05:48:33;;;;;;;0.68;0.50;;;;;;;24.39;89.33;98154.55;1710310;82;21061;-59
2022/06/21 05:51:00;;;;;;;0.50;0.47;;;;;;;24.48;89.58;98129.97;1715706;82;21034;-59
2022/06/21 05:53:43;;;;;;;2.40;0.50;;;;;;;24.55;89.84;98132.23;1680472;82;21054;-56
2022/06/21 05:56:13;;;;;;;2.20;0.50;;;;;;;24.61;90.07;98123.16;1683788;82;21089;-57
2022/06/21 05:58:46;;;;;;;5.03;0.65;;;;;;;24.68;90.27;98116.32;1715004;82;21126;-57
2022/06/21 06:01:18;;;;;;;3.30;0.40;;;;;;;24.75;90.51;98109.80;1710382;82;20904;-58
2022/06/21 06:04:02;;;;;;;1.00;0.50;;;;;;;24.84;90.77;98121.48;1710714;82;21016;-56
2022/06/21 06:06:34;;;;;;;1.95;0.40;;;;;;;24.91;91.03;98110.05;1691640;82;20914;-58
2022/06/21 06:09:01;;;;;;;3.20;0.47;;;;;;;25.01;91.34;98115.99;1714907;82;21409;-58
2022/06/21 06:11:57;;;;;;;0.70;0.40;;;;;;;25.09;91.59;98115.00;1710995;82;22165;-60
2022/06/21 06:14:00;;;;;;;1.42;0.50;;;;;;;25.17;91.83;98103.80;1700360;82;21491;-55
2022/06/21 06:16:36;;;;;;;1.15;0.50;;;;;;;25.25;92.07;98111.35;1712386;82;20919;-56
2022/06/21 06:19:13;;;;;;;1.87;0.40;;;;;;;25.35;92.37;98112.87;1710703;82;20962;-57
2022/06/21 06:21:55;;;;;;;1.02;0.50;;;;;;;25.41;92.56;98116.16;1707190;82;21049;-56
2022/06/21 06:24:26;;;;;;;0.55;0.50;;;;;;;25.45;92.67;98116.90;1702518;82;21055;-57
2022/06/21 06:26:56;;;;;;;2.47;0.50;;;;;;;25.48;92.77;98110.98;1710175;82;21433;-56
2022/06/21 06:29:27;;;;;;;1.17;0.50;;;;;;;25.52;92.88;98110.87;1706508;82;20899;-55
2022/06/21 06:32:33;;;;;;;0.75;0.50;;;;;;;25.58;93.08;98104.55;1707977;82;20907;-58
2022/06/21 06:35:00;;;;;;;1.80;0.60;;;;;;;25.67;93.29;98109.89;1709504;82;20933;-56
2022/06/21 06:37:36;;;;;;;2.05;0.50;;;;;;;25.74;93.53;98101.10;1707537;82;21139;-57
2022/06/21 06:40:05;;;;;;;2.15;0.60;;;;;;;25.79;93.70;98092.52;1707787;82;20922;-57
2022/06/21 06:42:36;;;;;;;0.75;0.50;;;;;;;25.85;93.88;98096.36;1708003;82;21712;-56
2022/06/21 06:45:21;;;;;;;1.75;0.60;;;;;;;25.89;94.01;98095.70;1706694;82;20963;-56
2022/06/21 06:47:49;;;;;;;1.30;0.50;;;;;;;25.94;94.14;98086.82;1702211;82;21021;-57
2022/06/21 06:50:26;;;;;;;0.68;0.50;;;;;;;25.98;94.32;98089.45;1693563;82;21292;-58
2022/06/21 06:53:10;;;;;;;2.80;0.55;;;;;;;26.03;94.46;98084.14;1695181;82;21269;-58
2022/06/21 06:55:41;;;;;;;;;;;;;;;26.07;94.58;98080.44;1707687;82;21049;-56
2022/06/21 06:58:23;;;;;;;1.02;0.60;;;;;;;26.11;94.72;98082.58;1695057;82;20997;-56
2022/06/21 07:00:55;;;;;;;1.07;0.60;;;;;;;26.15;94.83;98089.34;1692292;82;26975;-59
2022/06/21 07:03:30;;;;;;;4.58;0.70;;;;;;;26.19;94.99;98081.51;1700175;82;21426;-57
2022/06/21 07:06:05;;;;;;;2.58;0.70;;;;;;;26.22;95.11;98083.29;1703486;82;20992;-56
2022/06/21 07:09:03;;;;;;;1.35;0.70;;;;;;;26.25;95.21;98087.01;1698028;82;21104;-58
2022/06/21 07:11:44;;;;;;;1.40;0.60;;;;;;;26.32;95.43;98082.89;1705132;82;21551;-58
2022/06/21 07:14:23;;;;;;;1.35;0.60;;;;;;;26.43;95.71;98081.40;1699541;82;21081;-61
2022/06/21 07:16:57;;;;;;;2.05;0.60;;;;;;;26.52;95.96;98075.97;1700924;82;21780;-59
2022/06/21 07:19:24;;;;;;;0.95;0.60;;;;;;;26.59;96.22;98081.78;1699948;82;21490;-62
2022/06/21 07:21:51;;;;;;;2.27;0.60;;;;;;;26.68;96.47;98082.40;1696906;82;21414;-59
2022/06/21 07:24:19;;;;;;;4.72;0.60;;;;;;;26.75;96.70;98079.08;1696161;82;21096;-57
2022/06/21 07:26:54;;;;;;;6.35;1.77;;;;;;;26.80;96.87;98087.55;1708013;82;21049;-61
2022/06/21 07:29:32;;;;;;;2.10;0.60;;;;;;;26.88;97.09;98082.34;1699316;82;21221;-61
2022/06/21 07:32:11;;;;;;;2.95;0.60;;;;;;;26.94;97.30;98085.11;1696714;82;21074;-56
2022/06/21 07:34:45;;;;;;;0.80;0.80;;;;;;;27.00;97.48;98073.18;1697374;82;21085;-61
2022/06/21 07:37:29;;;;;;;1.07;0.60;;;;;;;27.07;97.68;98075.38;1701554;82;21118;-57
2022/06/21 07:40:16;;;;;;;4.12;0.80;;;;;;;27.16;97.89;98075.13;1697394;82;21540;-58
2022/06/21 07:42:57;;;;;;;4.72;0.82;;;;;;;27.20;98.01;98073.63;1692420;82;21121;-61
2022/06/21 07:45:38;;;;;;;0.90;0.70;;;;;;;27.24;98.17;98063.81;1696632;82;21114;-57
2022/06/21 07:48:20;;;;;;;3.98;0.68;;;;;;;27.28;98.32;98056.80;1703625;82;21082;-57
2022/06/21 07:50:50;;;;;;;3.15;1.00;;;;;;;27.33;98.44;98055.59;1703206;82;21041;-56
2022/06/21 07:53:37;;;;;;;9.83;4.28;;;;;;;27.39;98.63;98061.62;1702151;82;21140;-57
2022/06/21 07:56:17;;;;;;;4.85;0.90;;;;;;;27.44;98.77;98069.55;1698164;82;21488;-64
2022/06/21 07:59:56;;;;;;;4.80;0.80;;;;;;;27.52;98.95;98054.62;1779553;78;22628;-70
2022/06/21 08:08:29;;;;;;;2.40;0.70;;;;;;;27.57;99.24;98045.15;1734994;80;20936;-70
2022/06/21 08:11:04;;;;;;;2.15;0.70;;;;;;;27.64;99.43;98039.06;1708358;81;20974;-70
2022/06/21 08:13:31;;;;;;;3.33;0.70;;;;;;;27.71;99.61;98047.30;1709093;81;21016;-70
2022/06/21 08:16:09;;;;;;;2.22;0.70;;;;;;;27.76;99.79;98044.16;1709339;81;21131;-70
2022/06/21 08:19:12;;;;;;;4.78;0.80;;;;;;;27.79;99.92;98041.50;1711325;81;21570;-72
2022/06/21 08:21:44;;;;;;;1.92;0.70;;;;;;;27.84;100.00;98042.50;1705655;81;21028;-66
2022/06/21 08:24:16;;;;;;;2.33;0.70;;;;;;;27.96;100.00;98041.78;1673041;84;21064;-69
2022/06/21 08:26:55;;;;;;;5.85;0.72;;;;;;;28.07;100.00;98044.64;1700288;82;21029;-68
2022/06/21 08:29:45;;;;;;;1.00;0.50;;;;;;;28.17;100.00;98048.30;1653477;82;21167;-71
2022/06/21 08:32:34;;;;;;;5.28;0.75;;;;;;;28.27;100.00;98050.02;1709132;82;21112;-66
2022/06/21 08:35:18;;;;;;;4.55;0.68;;;;;;;28.41;100.00;98039.12;1682175;82;22459;-71
2022/06/21 08:37:51;;;;;;;3.33;0.75;;;;;;;28.51;100.00;98041.36;1706772;82;21009;-68
2022/06/21 08:40:56;;;;;;;2.95;0.70;;;;;;;28.53;100.00;98041.45;1704501;82;22439;-66
2022/06/21 08:44:01;;;;;;;0.75;0.70;;;;;;;28.52;100.00;98036.14;1705696;82;21112;-68
2022/06/21 08:47:08;;;;;;;2.10;0.60;;;;;;;28.48;100.00;98039.92;1680813;82;21261;-66
2022/06/21 08:49:43;;;;;;;1.00;0.60;;;;;;;28.47;100.00;98037.38;1700283;82;21503;-68
2022/06/21 08:52:24;;;;;;;2.05;0.60;;;;;;;28.51;100.00;98035.30;1708103;82;20942;-71
2022/06/21 08:55:39;;;;;;;6.15;0.75;;;;;;;28.58;100.00;98042.98;1699755;82;21807;-69
2022/06/21 08:58:46;;;;;;;2.85;0.70;;;;;;;28.62;100.00;98032.31;1689423;82;21121;-68
2022/06/21 09:01:41;;;;;;;3.08;0.55;;;;;;;28.69;100.00;98029.45;1668137;84;21335;-65
2022/06/21 09:04:22;;;;;;;3.70;0.70;;;;;;;28.74;100.00;98024.09;1668198;84;21052;-55
2022/06/21 09:07:21;;;;;;;3.35;0.65;;;;;;;28.77;100.00;98023.09;1661336;84;21108;-58
2022/06/21 09:10:17;;;;;;;2.08;0.60;;;;;;;28.86;100.00;98030.02;1664200;84;21630;-63
2022/06/21 09:13:22;;;;;;;1.05;0.80;;;;;;;28.91;100.00;98024.65;1662934;84;21713;-62
2022/06/21 09:16:26;;;;;;;1.75;0.60;;;;;;;28.93;100.00;98021.63;1660717;84;21192;-60
2022/06/21 09:19:15;;;;;;;5.20;0.80;;;;;;;28.91;100.00;98017.73;1664216;84;21451;-58
2022/06/21 09:21:55;;;;;;;0.90;0.60;;;;;;;28.90;100.00;98017.41;1689286;82;21089;-61
2022/06/21 09:25:01;;;;;;;3.12;0.68;;;;;;;28.87;100.00;98022.02;1623554;84;21126;-61
2022/06/21 09:27:41;;;;;;;1.42;0.50;;;;;;;28.83;100.00;98006.12;1687186;83;21102;-63
2022/06/21 09:30:25;;;;;;;3.92;1.15;;;;;;;28.79;100.00;98014.03;1693307;83;21479;-60
2022/06/21 09:33:12;;;;;;;;;;;;;;;28.81;100.00;98009.65;1688416;82;21119;-60
2022/06/21 09:36:02;;;;;;;1.40;0.60;;;;;;;28.87;100.00;98008.17;1688035;82;20213;-60
2022/06/21 09:39:11;;;;;;;2.25;0.60;;;;;;;28.95;100.00;98003.70;1692079;82;21054;-59
2022/06/21 09:42:15;;;;;;;3.85;0.50;;;;;;;29.05;100.00;98001.77;1687003;83;21048;-60
2022/06/21 09:45:05;;;;;;;2.15;0.60;;;;;;;29.13;100.00;97995.89;1690968;83;21613;-64
2022/06/21 09:47:59;;;;;;;5.03;0.95;;;;;;;29.16;100.00;97996.82;1690106;82;21059;-59
2022/06/21 09:51:07;;;;;;;2.87;0.60;;;;;;;29.13;100.00;97996.44;1688278;83;21088;-58
2022/06/21 09:53:45;;;;;;;1.17;0.57;;;;;;;29.06;100.00;97992.91;1688503;82;21608;-60
2022/06/21 09:56:27;;;;;;;1.57;0.50;;;;;;;29.02;100.00;97988.91;1692019;82;21095;-58
2022/06/21 09:59:23;;;;;;;2.70;0.50;;;;;;;29.01;100.00;97982.52;1696063;82;21161;-60
2022/06/21 10:02:07;;;;;;;1.60;0.50;;;;;;;28.94;100.00;97982.62;1659246;84;21102;-56
2022/06/21 10:05:03;;;;;;;2.47;0.50;;;;;;;28.90;100.00;97980.56;1666090;84;21045;-57
2022/06/21 10:07:52;;;;;;;3.02;0.75;;;;;;;28.92;100.00;97970.92;1663889;84;21053;-58
2022/06/21 10:10:33;;;;;;;4.30;0.65;;;;;;;29.01;100.00;97985.86;1666938;84;21113;-58
2022/06/21 10:13:16;;;;;;;5.17;0.90;;;;;;;29.02;100.00;97998.06;1665026;84;21154;-59
2022/06/21 10:16:23;;;;;;;2.85;0.68;;;;;;;28.87;100.00;97992.09;1665097;84;28177;-58
2022/06/21 10:19:20;;;;;;;4.00;0.65;;;;;;;28.66;100.00;98000.88;1664004;84;21073;-58
2022/06/21 10:22:00;;;;;;;2.00;0.70;;;;;;;28.37;99.88;97998.31;1665066;84;21618;-61
2022/06/21 10:24:51;;;;;;;9.18;0.72;;;;;;;28.05;99.23;98006.70;1668369;84;21668;-57
2022/06/21 10:27:46;;;;;;;2.47;0.70;;;;;;;27.72;98.62;98007.00;1666932;84;21200;-64
2022/06/21 10:30:25;;;;;;;4.35;0.80;;;;;;;27.42;97.97;98012.28;1665067;84;21297;-56
2022/06/21 10:33:18;;;;;;;2.58;0.70;;;;;;;27.17;97.47;98004.48;1663918;84;21059;-60
2022/06/21 10:35:56;;;;;;;6.70;0.93;;;;;;;26.92;97.00;98024.27;1668421;84;21059;-59
2022/06/21 10:38:55;;;;;;;1.22;0.70;;;;;;;26.67;96.59;98034.63;1663163;84;21064;-57
2022/06/21 10:44:34;;;;;;;3.58;0.70;;;;;;;26.28;96.01;98045.26;1617482;84;21143;-56
2022/06/21 10:47:05;;;;;;;3.02;0.68;;;;;;;26.10;95.78;98054.69;1664373;84;21452;-57
2022/06/21 10:49:55;;;;;;;5.55;1.10;;;;;;;25.96;95.67;98043.33;1665960;84;22534;-57
2022/06/21 10:52:35;;;;;;;2.08;0.70;;;;;;;25.86;95.63;98051.20;1665291;84;21033;-56
2022/06/21 10:55:51;;;;;;;4.17;1.00;;;;;;;25.72;95.56;98048.09;1665328;84;21156;-57
2022/06/21 10:58:40;;;;;;;;;;;;;;;25.62;95.61;98037.49;1668203;84;21100;-57
2022/06/21 11:01:28;;;;;;;4.22;0.95;;;;;;;25.55;95.78;98047.11;1663683;84;20411;-60
2022/06/21 11:04:25;;;;;;;1.27;0.98;;;;;;;25.52;96.01;98040.63;1658634;84;21077;-58
2022/06/21 11:07:00;;;;;;;5.78;1.12;;;;;;;25.47;96.17;98053.34;1654809;84;21122;-58
2022/06/21 11:09:53;;;;;;;3.30;0.90;;;;;;;25.41;96.39;98054.19;1659392;84;22237;-57
2022/06/21 11:13:05;;;;;;;2.65;1.32;;;;;;;25.35;96.56;98047.59;1656188;84;21077;-57
2022/06/21 11:15:44;;;;;;;2.45;1.32;;;;;;;25.35;96.90;98063.30;1658746;84;21069;-56
2022/06/21 11:18:30;;;;;;;2.83;1.02;;;;;;;25.35;97.25;98060.54;1652180;84;21331;-57
2022/06/21 11:21:23;;;;;;;5.22;1.10;;;;;;;25.29;97.46;98073.22;1666467;84;21042;-57
2022/06/21 11:24:20;;;;;;;6.12;1.98;;;;;;;25.20;97.63;98060.16;1662060;84;22249;-63
2022/06/21 11:27:15;;;;;;;2.10;1.55;;;;;;;25.17;97.87;98051.48;1663774;84;21041;-57
2022/06/21 11:29:54;;;;;;;3.30;1.40;;;;;;;25.12;98.08;98054.00;1654791;84;21562;-63
2022/06/21 11:32:38;;;;;;;2.40;1.52;;;;;;;25.06;98.33;98068.07;1660747;84;21669;-58
2022/06/21 11:35:32;;;;;;;2.62;2.42;;;;;;;24.99;98.46;98082.34;1662102;84;21572;-57
2022/06/21 11:38:13;;;;;;;9.90;1.40;;;;;;;24.82;98.47;98114.84;1654372;84;21214;-56
2022/06/21 11:40:46;;;;;;;4.35;0.80;;;;;;;24.61;98.34;98156.70;1654884;84;21082;-53
2022/06/21 11:43:45;;;;;;;2.45;0.50;;;;;;;24.07;97.62;98219.98;1692971;82;20996;-54
2022/06/21 11:46:20;;;;;;;1.55;0.60;;;;;;;23.35;96.42;98237.00;1692480;82;21075;-56
2022/06/21 11:49:29;;;;;;;5.22;0.50;;;;;;;22.67;95.21;98227.64;1692827;82;20975;-54
2022/06/21 11:52:31;;;;;;;1.55;0.40;;;;;;;22.16;94.34;98239.77;1686276;82;21240;-53
2022/06/21 11:55:21;;;;;;;1.15;0.47;;;;;;;21.72;93.62;98208.89;1690843;82;21150;-54
2022/06/21 11:57:53;;;;;;;0.80;0.30;;;;;;;21.30;93.00;98223.00;1659881;84;21357;-55
2022/06/21 12:00:36;;;;;;;1.87;0.30;;;;;;;21.03;92.64;98246.67;1674663;82;21519;-52
2022/06/21 12:03:04;;;;;;;2.75;0.30;;;;;;;20.80;92.48;98247.95;1693591;82;21366;-53
2022/06/21 12:05:52;;;;;;;0.40;0.20;;;;;;;20.61;92.38;98269.67;1693442;82;21813;-56
2022/06/21 12:08:32;;;;;;;0.20;0.20;;;;;;;20.43;92.28;98284.55;1692801;82;20897;-54
2022/06/21 12:11:22;;;;;;;2.10;0.20;;;;;;;20.20;92.19;98278.89;1690865;82;21422;-53
2022/06/21 12:14:00;;;;;;;0.20;0.10;;;;;;;19.99;92.15;98279.37;1687814;82;21387;-54
2022/06/21 12:16:36;;;;;;;0.35;0.20;;;;;;;19.77;92.09;98275.94;1688881;83;21438;-53
2022/06/21 12:19:19;;;;;;;0.20;0.10;;;;;;;19.52;91.97;98272.29;1687908;83;21140;-54
2022/06/21 12:21:54;;;;;;;0.10;0.10;;;;;;;19.32;91.94;98273.54;1690816;83;20951;-53
2022/06/21 12:24:23;;;;;;;;;;;;;;;19.16;92.07;98272.97;1691565;82;21004;-55
2022/06/21 12:26:49;;;;;;;1.87;0.15;;;;;;;19.02;92.17;98255.36;1693715;82;20406;-54
2022/06/21 12:29:18;;;;;;;0.42;0.10;;;;;;;18.90;92.36;98269.77;1688366;83;20969;-52
2022/06/21 12:31:50;;;;;;;0.45;0.10;;;;;;;18.85;92.64;98274.02;1687406;82;21202;-55
2022/06/21 12:34:47;;;;;;;0.40;0.10;;;;;;;18.79;92.95;98260.53;1688928;83;21458;-53
2022/06/21 12:37:17;;;;;;;0.85;0.10;;;;;;;18.73;93.25;98263.87;1689334;83;20925;-53
2022/06/21 12:39:58;;;;;;;0.28;0.15;;;;;;;18.66;93.63;98281.90;1652341;84;21452;-53
2022/06/21 12:42:49;;;;;;;1.75;0.10;;;;;;;18.63;94.00;98264.49;1686291;83;21462;-53
2022/06/21 12:45:56;;;;;;;1.90;0.20;;;;;;;18.58;94.44;98268.22;1694041;82;21084;-55
2022/06/21 12:49:07;;;;;;;0.10;0.10;;;;;;;18.58;94.93;98260.05;1691079;82;21329;-56